Time;durP1;ratioP1;P1;durP2;ratioP2;P2;SDS_P1;SDS_P2;PMS_P1;PMS_P2;Temp;Humidity;BMP_temperature;BMP_pressure;BME280_temperature;BME280_humidity;BME280_pressure;Samples;Min_cycle;Max_cycle;Signal;HPM_P1;HPM_P2
2022/03/25 00:01:41;;;;;;;28.70;14.83;;;11.40;59.60;;;;;;5031774;28;20548;-69
2022/03/25 00:04:08;;;;;;;26.60;13.60;;;11.30;59.70;;;;;;5034892;28;20734;-68
2022/03/25 00:06:35;;;;;;;24.90;14.57;;;11.20;59.40;;;;;;5038609;28;20212;-69
2022/03/25 00:09:01;;;;;;;22.83;13.80;;;11.20;59.50;;;;;;5045038;28;20878;-70
2022/03/25 00:11:27;;;;;;;30.43;14.80;;;11.00;59.40;;;;;;5048506;28;20482;-70
2022/03/25 00:13:52;;;;;;;28.07;15.77;;;10.90;59.60;;;;;;5037210;28;20466;-68
2022/03/25 00:16:18;;;;;;;32.57;15.80;;;10.90;59.70;;;;;;5017987;28;20300;-68
2022/03/25 00:18:44;;;;;;;33.80;15.67;;;10.80;59.70;;;;;;5029718;28;20266;-67
2022/03/25 00:21:10;;;;;;;28.30;15.80;;;10.80;59.80;;;;;;5028366;28;20463;-69
2022/03/25 00:23:35;;;;;;;25.80;14.60;;;10.80;59.90;;;;;;5027098;28;20262;-68
2022/03/25 00:26:02;;;;;;;30.67;15.50;;;10.80;60.50;;;;;;5038604;28;20721;-69
2022/03/25 00:28:28;;;;;;;29.83;14.80;;;10.90;60.40;;;;;;5041027;28;20223;-70
2022/03/25 00:30:54;;;;;;;26.27;14.07;;;10.90;60.60;;;;;;5024420;28;20959;-69
2022/03/25 00:33:20;;;;;;;27.73;13.27;;;10.90;60.30;;;;;;5029083;28;21018;-69
2022/03/25 00:35:46;;;;;;;23.67;13.90;;;11.00;60.40;;;;;;5024772;28;20518;-69
2022/03/25 00:38:12;;;;;;;24.53;14.17;;;11.00;60.50;;;;;;5022806;28;20225;-69
2022/03/25 00:40:37;;;;;;;26.47;13.23;;;11.00;60.30;;;;;;5015442;28;20760;-69
2022/03/25 00:43:06;;;;;;;26.00;13.30;;;10.90;60.40;;;;;;5039901;28;20464;-69
2022/03/25 00:45:33;;;;;;;31.10;15.70;;;11.00;60.50;;;;;;5035188;28;20454;-69
2022/03/25 00:47:59;;;;;;;23.70;13.77;;;10.90;60.50;;;;;;5043768;28;20458;-70
2022/03/25 00:50:26;;;;;;;24.27;14.70;;;10.90;60.50;;;;;;5055899;28;20478;-69
2022/03/25 00:52:51;;;;;;;30.73;15.47;;;10.90;60.70;;;;;;5024698;28;20466;-69
2022/03/25 00:55:18;;;;;;;26.80;14.00;;;10.80;61.10;;;;;;5027395;28;20455;-69
2022/03/25 00:57:44;;;;;;;25.70;14.80;;;10.80;61.30;;;;;;5025631;28;20246;-68
2022/03/25 01:00:13;;;;;;;25.73;13.47;;;10.80;61.40;;;;;;5035143;28;20474;-68
2022/03/25 01:02:38;;;;;;;30.70;15.73;;;10.70;60.90;;;;;;5025397;28;20456;-69
2022/03/25 01:05:05;;;;;;;27.07;14.23;;;10.70;60.80;;;;;;5005161;28;20270;-69
2022/03/25 01:07:31;;;;;;;24.50;14.63;;;10.70;60.80;;;;;;5033121;28;20234;-70
2022/03/25 01:09:57;;;;;;;22.83;13.60;;;10.70;61.20;;;;;;5036854;28;20446;-70
2022/03/25 01:12:23;;;;;;;26.40;14.07;;;10.70;61.00;;;;;;5041899;28;20227;-69
2022/03/25 01:14:49;;;;;;;26.50;14.80;;;10.70;61.20;;;;;;5030715;28;20220;-69
2022/03/25 01:17:16;;;;;;;30.77;15.60;;;10.70;61.40;;;;;;5023433;28;20450;-68
2022/03/25 01:19:43;;;;;;;30.80;15.27;;;10.70;61.50;;;;;;5033440;28;20604;-69
2022/03/25 01:22:09;;;;;;;27.30;14.90;;;10.60;61.20;;;;;;5033452;28;20535;-70
2022/03/25 01:24:35;;;;;;;27.47;15.40;;;10.60;61.40;;;;;;5036468;28;21066;-69
2022/03/25 01:27:01;;;;;;;20.73;14.17;;;10.50;61.40;;;;;;5028731;28;20741;-70
2022/03/25 01:29:29;;;;;;;24.57;15.13;;;10.40;61.00;;;;;;5043459;28;20284;-69
2022/03/25 01:31:55;;;;;;;28.73;14.57;;;10.40;61.40;;;;;;5030693;28;20493;-69
2022/03/25 01:34:20;;;;;;;26.53;14.40;;;10.30;61.40;;;;;;5022153;28;20456;-69
2022/03/25 01:36:47;;;;;;;26.53;14.87;;;10.20;61.50;;;;;;5019013;28;20587;-70
2022/03/25 01:39:13;;;;;;;31.23;15.23;;;10.20;61.60;;;;;;5025949;28;20311;-70
2022/03/25 01:41:39;;;;;;;27.67;14.20;;;10.10;62.00;;;;;;5029794;28;20509;-69
2022/03/25 01:44:08;;;;;;;23.90;12.87;;;10.10;62.30;;;;;;5029592;28;20472;-70
2022/03/25 01:46:36;;;;;;;30.80;14.33;;;10.20;62.40;;;;;;5036037;28;20476;-68
2022/03/25 01:49:02;;;;;;;28.57;14.50;;;10.10;62.30;;;;;;5045506;28;20456;-69
2022/03/25 01:51:32;;;;;;;26.87;13.47;;;10.20;62.60;;;;;;5005868;28;20518;-68
2022/03/25 01:54:03;;;;;;;27.33;14.57;;;10.10;62.20;;;;;;5026448;28;20699;-69
2022/03/25 01:56:31;;;;;;;28.30;15.70;;;10.10;62.70;;;;;;5022338;28;20493;-70
2022/03/25 01:58:56;;;;;;;27.50;15.37;;;10.00;62.70;;;;;;5034118;28;20455;-70
2022/03/25 02:01:25;;;;;;;24.10;13.77;;;10.00;62.80;;;;;;5033089;28;20286;-71
2022/03/25 02:03:50;;;;;;;28.33;13.27;;;10.00;63.30;;;;;;5013732;28;20228;-68
2022/03/25 02:06:16;;;;;;;23.63;13.60;;;9.90;64.70;;;;;;5046067;28;20477;-70
2022/03/25 02:08:42;;;;;;;30.40;14.40;;;9.90;64.50;;;;;;5011746;28;20249;-68
2022/03/25 02:11:09;;;;;;;21.97;13.70;;;10.00;62.90;;;;;;5028287;28;20639;-69
2022/03/25 02:13:35;;;;;;;24.47;13.40;;;9.90;65.60;;;;;;5008075;28;20440;-67
2022/03/25 02:16:02;;;;;;;28.03;13.73;;;9.90;64.80;;;;;;5045945;28;20440;-69
2022/03/25 02:18:28;;;;;;;24.80;12.77;;;9.90;64.60;;;;;;5033199;28;20990;-69
2022/03/25 02:20:53;;;;;;;28.00;13.87;;;9.90;64.70;;;;;;5036799;28;20544;-69
2022/03/25 02:23:23;;;;;;;24.67;13.27;;;9.90;64.60;;;;;;5027727;28;20242;-67
2022/03/25 02:25:52;;;;;;;24.10;14.07;;;9.80;64.40;;;;;;5044203;28;20451;-68
2022/03/25 02:28:18;;;;;;;26.30;14.00;;;9.80;65.40;;;;;;5032359;28;20447;-71
2022/03/25 02:30:46;;;;;;;25.37;13.73;;;9.80;64.60;;;;;;5028433;28;21020;-67
2022/03/25 02:33:14;;;;;;;26.60;13.53;;;9.80;64.60;;;;;;5025604;28;20511;-69
2022/03/25 02:35:49;;;;;;;30.17;15.30;;;9.80;64.60;;;;;;5035541;28;20571;-68
2022/03/25 02:38:18;;;;;;;23.30;13.43;;;9.80;64.70;;;;;;5026551;28;20489;-69
2022/03/25 02:40:45;;;;;;;26.10;15.60;;;9.80;64.80;;;;;;5022752;28;20540;-69
2022/03/25 02:43:11;;;;;;;23.50;14.23;;;9.70;64.80;;;;;;5030594;28;20495;-68
2022/03/25 02:45:42;;;;;;;23.13;14.63;;;9.70;65.60;;;;;;5029386;28;20455;-69
2022/03/25 02:48:09;;;;;;;26.53;14.50;;;9.70;65.00;;;;;;5028511;28;20814;-70
2022/03/25 02:50:35;;;;;;;24.33;13.90;;;9.70;65.10;;;;;;5037176;28;20223;-69
2022/03/25 02:53:02;;;;;;;24.33;13.07;;;9.70;65.00;;;;;;5038557;28;20479;-68
2022/03/25 02:55:28;;;;;;;27.77;14.60;;;9.60;65.40;;;;;;5023246;28;20475;-69
2022/03/25 02:57:54;;;;;;;30.57;15.67;;;9.50;65.20;;;;;;5032579;28;20828;-70
2022/03/25 03:00:21;;;;;;;26.07;14.10;;;9.50;65.50;;;;;;5015904;28;20228;-68
2022/03/25 03:02:47;;;;;;;28.60;13.90;;;9.50;65.60;;;;;;5041196;28;20829;-70
2022/03/25 03:05:17;;;;;;;29.67;14.70;;;9.50;65.50;;;;;;5046524;28;20498;-69
2022/03/25 03:07:45;;;;;;;27.33;14.30;;;9.50;65.50;;;;;;5023922;28;20456;-67
2022/03/25 03:10:11;;;;;;;27.63;14.50;;;9.40;65.50;;;;;;5037969;28;20450;-70
2022/03/25 03:12:37;;;;;;;25.70;13.60;;;9.40;65.30;;;;;;5025901;28;20468;-69
2022/03/25 03:15:04;;;;;;;26.23;15.00;;;9.40;65.30;;;;;;5042867;28;20516;-67
2022/03/25 03:17:30;;;;;;;29.50;14.40;;;9.30;65.20;;;;;;5043807;28;20246;-69
2022/03/25 03:19:55;;;;;;;32.30;15.07;;;9.30;65.50;;;;;;5034985;28;20480;-69
2022/03/25 03:22:22;;;;;;;28.60;15.27;;;9.30;65.70;;;;;;5030452;28;20290;-68
2022/03/25 03:24:48;;;;;;;30.43;14.90;;;9.30;65.60;;;;;;5040608;28;20704;-67
2022/03/25 03:27:14;;;;;;;26.63;14.97;;;9.30;65.70;;;;;;5033477;28;21014;-69
2022/03/25 03:29:40;;;;;;;29.10;14.90;;;9.30;65.90;;;;;;5046815;28;20547;-69
2022/03/25 03:32:07;;;;;;;23.57;14.10;;;9.20;65.90;;;;;;5032804;28;20458;-70
2022/03/25 03:34:33;;;;;;;29.73;15.63;;;9.20;66.00;;;;;;5046939;28;20467;-69
2022/03/25 03:36:59;;;;;;;28.80;15.40;;;9.20;66.00;;;;;;5021694;28;20459;-70
2022/03/25 03:39:25;;;;;;;29.50;15.47;;;9.20;66.10;;;;;;5026803;28;20466;-69
2022/03/25 03:41:51;;;;;;;29.13;14.80;;;9.10;66.00;;;;;;5023578;28;22748;-69
2022/03/25 03:44:17;;;;;;;23.17;13.63;;;9.10;66.00;;;;;;5012920;28;20665;-69
2022/03/25 03:46:42;;;;;;;28.50;16.20;;;9.00;65.80;;;;;;5047805;28;20230;-70
2022/03/25 03:49:08;;;;;;;34.70;14.23;;;9.00;66.10;;;;;;5031677;28;20547;-69
2022/03/25 03:51:34;;;;;;;29.00;14.50;;;9.00;66.40;;;;;;5038047;28;20220;-68
2022/03/25 03:54:00;;;;;;;26.43;13.87;;;9.00;66.20;;;;;;5028441;28;20224;-70
2022/03/25 03:56:26;;;;;;;29.63;15.60;;;9.00;66.10;;;;;;5029144;28;20255;-70
2022/03/25 03:58:52;;;;;;;28.67;15.73;;;8.90;66.20;;;;;;5036837;28;20474;-69
2022/03/25 04:01:18;;;;;;;28.40;14.30;;;8.90;66.20;;;;;;5026814;28;20819;-68
2022/03/25 04:03:44;;;;;;;24.40;13.90;;;8.90;66.30;;;;;;5034993;28;20484;-69
2022/03/25 04:06:10;;;;;;;25.10;13.97;;;8.90;66.30;;;;;;5026235;28;20212;-68
2022/03/25 04:08:36;;;;;;;24.80;13.33;;;8.90;66.50;;;;;;5001882;28;20212;-69
2022/03/25 04:11:03;;;;;;;26.77;15.07;;;8.90;66.40;;;;;;5032887;28;21032;-70
2022/03/25 04:13:29;;;;;;;23.80;12.67;;;8.90;66.60;;;;;;5036554;28;20216;-68
2022/03/25 04:15:55;;;;;;;35.87;14.80;;;8.80;66.30;;;;;;5031768;28;20454;-69
2022/03/25 04:18:23;;;;;;;23.57;13.93;;;8.80;66.30;;;;;;5030961;28;20458;-69
2022/03/25 04:20:50;;;;;;;24.17;12.97;;;8.80;66.70;;;;;;5032273;28;20619;-69
2022/03/25 04:23:16;;;;;;;29.53;15.70;;;8.70;66.70;;;;;;5036381;28;20463;-69
2022/03/25 04:25:42;;;;;;;26.47;13.57;;;8.70;66.60;;;;;;5039417;28;20451;-70
2022/03/25 04:28:09;;;;;;;24.40;13.57;;;8.70;66.70;;;;;;5040368;28;20462;-70
2022/03/25 04:30:37;;;;;;;31.27;15.73;;;8.60;66.70;;;;;;5041943;28;20454;-70
2022/03/25 04:33:04;;;;;;;27.97;15.03;;;8.60;67.00;;;;;;5020699;28;20932;-69
2022/03/25 04:35:30;;;;;;;25.23;13.50;;;8.60;67.20;;;;;;5042630;28;20454;-70
2022/03/25 04:37:56;;;;;;;34.87;15.90;;;8.60;67.10;;;;;;5031025;28;21006;-70
2022/03/25 04:40:25;;;;;;;28.63;14.87;;;8.60;67.20;;;;;;5043755;28;20489;-69
2022/03/25 04:42:52;;;;;;;36.20;15.70;;;8.50;67.10;;;;;;5027280;28;20457;-69
2022/03/25 04:45:20;;;;;;;25.40;15.10;;;8.50;66.90;;;;;;5025153;28;20475;-68
2022/03/25 04:47:46;;;;;;;25.50;13.90;;;8.50;66.90;;;;;;5009887;28;20471;-70
2022/03/25 04:50:12;;;;;;;23.70;13.40;;;8.50;67.10;;;;;;5024012;28;21067;-67
2022/03/25 04:52:38;;;;;;;31.67;13.10;;;8.50;67.20;;;;;;5029984;28;20596;-68
2022/03/25 04:55:05;;;;;;;25.03;13.90;;;8.50;67.20;;;;;;5041311;28;20990;-68
2022/03/25 04:57:31;;;;;;;28.23;14.20;;;8.50;67.10;;;;;;5039324;28;20526;-70
2022/03/25 04:59:56;;;;;;;29.60;14.20;;;8.40;67.10;;;;;;5021820;28;20467;-68
2022/03/25 05:02:23;;;;;;;26.77;14.73;;;8.40;67.20;;;;;;5022098;28;20216;-69
2022/03/25 05:04:49;;;;;;;30.47;16.20;;;8.40;67.20;;;;;;5027573;28;20227;-70
2022/03/25 05:07:18;;;;;;;28.73;16.17;;;8.40;67.30;;;;;;5010477;28;20450;-69
2022/03/25 05:09:44;;;;;;;29.37;14.23;;;8.40;67.20;;;;;;5044476;28;20454;-68
2022/03/25 05:12:12;;;;;;;36.03;16.80;;;8.40;67.50;;;;;;5024349;28;20527;-68
2022/03/25 05:14:39;;;;;;;29.17;14.70;;;8.30;67.40;;;;;;5032331;28;20493;-69
2022/03/25 05:17:05;;;;;;;28.03;14.50;;;8.30;67.30;;;;;;5018454;28;21034;-70
2022/03/25 05:19:31;;;;;;;27.90;14.77;;;8.30;67.30;;;;;;5048875;28;20446;-69
2022/03/25 05:21:57;;;;;;;28.40;14.40;;;8.30;67.50;;;;;;5029083;28;20477;-68
2022/03/25 05:24:22;;;;;;;26.27;13.43;;;8.20;67.30;;;;;;5027597;28;20462;-68
2022/03/25 05:26:48;;;;;;;27.63;14.70;;;8.20;67.70;;;;;;5020406;28;20219;-67
2022/03/25 05:29:14;;;;;;;30.60;16.30;;;8.20;67.80;;;;;;5023489;28;20216;-69
2022/03/25 05:31:39;;;;;;;28.73;14.47;;;8.20;67.70;;;;;;5031090;28;20718;-68
2022/03/25 05:34:06;;;;;;;26.50;14.23;;;8.20;67.80;;;;;;5027038;28;20224;-69
2022/03/25 05:36:34;;;;;;;31.10;15.10;;;8.20;67.70;;;;;;5017434;28;20311;-70
2022/03/25 05:39:01;;;;;;;28.87;14.87;;;8.10;68.00;;;;;;5036033;28;20497;-67
2022/03/25 05:41:28;;;;;;;26.83;14.63;;;8.10;67.90;;;;;;5026591;28;20555;-69
2022/03/25 05:43:54;;;;;;;26.90;14.20;;;8.10;68.00;;;;;;5018105;28;20456;-69
2022/03/25 05:46:20;;;;;;;25.83;14.60;;;8.10;68.00;;;;;;5033099;28;21079;-70
2022/03/25 05:48:46;;;;;;;30.13;15.77;;;8.00;68.00;;;;;;5042977;28;20603;-69
2022/03/25 05:51:12;;;;;;;30.50;15.07;;;8.00;68.10;;;;;;5031388;28;20220;-68
2022/03/25 05:53:41;;;;;;;25.97;13.50;;;8.00;68.20;;;;;;5030118;28;20573;-68
2022/03/25 05:56:07;;;;;;;30.63;14.73;;;8.00;68.40;;;;;;5024612;28;20465;-68
2022/03/25 05:58:34;;;;;;;29.60;16.20;;;8.00;68.40;;;;;;5022342;28;20992;-68
2022/03/25 06:01:04;;;;;;;30.17;15.80;;;8.00;68.70;;;;;;5030317;28;20481;-68
2022/03/25 06:03:31;;;;;;;29.33;15.10;;;8.00;68.50;;;;;;5027448;28;20547;-69
2022/03/25 06:05:56;;;;;;;30.20;15.70;;;7.90;69.00;;;;;;5027402;28;20466;-69
2022/03/25 06:08:25;;;;;;;29.97;15.50;;;7.90;69.00;;;;;;5033503;28;20446;-70
2022/03/25 06:10:51;;;;;;;28.67;14.67;;;7.90;69.00;;;;;;5026214;28;20246;-67
2022/03/25 06:13:18;;;;;;;28.63;15.23;;;7.90;69.00;;;;;;5025886;28;20462;-68
2022/03/25 06:15:44;;;;;;;34.17;16.00;;;7.90;68.90;;;;;;5036543;28;20447;-69
2022/03/25 06:18:10;;;;;;;29.97;16.73;;;7.90;69.30;;;;;;5035893;28;20549;-71
2022/03/25 06:20:36;;;;;;;36.30;17.50;;;7.90;69.20;;;;;;5022380;28;20873;-70
2022/03/25 06:23:01;;;;;;;32.17;17.80;;;7.90;69.40;;;;;;5060553;28;20469;-69
2022/03/25 06:25:28;;;;;;;34.63;17.53;;;7.90;69.40;;;;;;5029782;28;20259;-70
2022/03/25 06:27:57;;;;;;;28.90;16.50;;;7.90;69.40;;;;;;5031079;28;20222;-69
2022/03/25 06:30:27;;;;;;;36.80;18.13;;;7.90;69.50;;;;;;5022823;28;21038;-69
2022/03/25 06:32:53;;;;;;;38.17;17.50;;;7.90;69.70;;;;;;5026588;28;20443;-70
2022/03/25 06:35:19;;;;;;;40.43;20.47;;;7.90;69.80;;;;;;5037120;28;20447;-68
2022/03/25 06:37:45;;;;;;;35.70;19.17;;;7.90;70.00;;;;;;5032350;28;20605;-67
2022/03/25 06:40:12;;;;;;;29.43;17.07;;;7.90;70.00;;;;;;5029622;28;21063;-67
2022/03/25 06:42:39;;;;;;;37.80;18.33;;;7.90;70.20;;;;;;5042005;28;20802;-70
2022/03/25 06:45:07;;;;;;;40.30;18.50;;;7.90;70.40;;;;;;5024202;28;20458;-71
2022/03/25 06:47:34;;;;;;;33.67;18.23;;;7.90;70.50;;;;;;5030755;28;20898;-70
2022/03/25 06:50:00;;;;;;;38.97;17.70;;;7.90;70.50;;;;;;5028814;28;20454;-70
2022/03/25 06:52:26;;;;;;;36.37;19.90;;;7.90;70.70;;;;;;5031933;28;21003;-70
2022/03/25 06:54:52;;;;;;;39.60;21.00;;;7.90;71.00;;;;;;5029501;28;22775;-70
2022/03/25 06:57:18;;;;;;;28.77;19.00;;;7.90;71.00;;;;;;5037824;28;20462;-68
2022/03/25 06:59:44;;;;;;;35.40;18.20;;;7.90;71.40;;;;;;5038055;28;20454;-69
2022/03/25 07:02:11;;;;;;;32.40;17.13;;;7.90;71.30;;;;;;5023379;28;20489;-69
2022/03/25 07:04:37;;;;;;;29.03;14.90;;;8.00;71.40;;;;;;5050311;28;20493;-68
2022/03/25 07:07:05;;;;;;;27.97;14.90;;;8.00;71.60;;;;;;5020825;28;20513;-71
2022/03/25 07:09:31;;;;;;;35.27;17.13;;;8.00;71.90;;;;;;5036227;28;20501;-71
2022/03/25 07:11:58;;;;;;;32.67;19.10;;;8.00;72.70;;;;;;5022455;28;20458;-70
2022/03/25 07:14:23;;;;;;;32.37;17.10;;;8.00;72.60;;;;;;5027580;28;20828;-71
2022/03/25 07:16:49;;;;;;;32.60;19.40;;;8.10;72.90;;;;;;5030141;28;20443;-69
2022/03/25 07:19:15;;;;;;;28.27;16.40;;;8.10;73.20;;;;;;5031199;28;20645;-69
2022/03/25 07:21:41;;;;;;;29.33;15.03;;;8.10;74.00;;;;;;5031170;28;20239;-72
2022/03/25 07:24:06;;;;;;;31.47;16.70;;;8.10;73.80;;;;;;5027382;28;20231;-69
2022/03/25 07:26:32;;;;;;;27.07;15.20;;;8.20;74.40;;;;;;5026678;28;20233;-69
2022/03/25 07:28:58;;;;;;;28.63;16.77;;;8.20;74.50;;;;;;5061533;28;20224;-70
2022/03/25 07:31:28;;;;;;;29.77;16.40;;;8.30;75.10;;;;;;5047442;28;20223;-71
2022/03/25 07:33:57;;;;;;;26.83;14.27;;;8.30;75.40;;;;;;5025488;28;20965;-69
2022/03/25 07:36:23;;;;;;;37.00;16.73;;;8.40;76.30;;;;;;5048074;28;20561;-70
2022/03/25 07:38:49;;;;;;;37.77;17.57;;;8.40;76.50;;;;;;5032892;28;20554;-70
2022/03/25 07:41:15;;;;;;;30.27;15.17;;;8.40;76.40;;;;;;5027150;28;20499;-69
2022/03/25 07:43:41;;;;;;;27.17;14.10;;;8.50;77.40;;;;;;5036926;28;20494;-69
2022/03/25 07:46:07;;;;;;;30.93;15.17;;;8.60;77.60;;;;;;5035571;28;20240;-69
2022/03/25 07:48:32;;;;;;;27.90;15.10;;;8.60;76.80;;;;;;5034479;28;20956;-71
2022/03/25 07:50:58;;;;;;;24.03;13.87;;;8.60;77.70;;;;;;5020224;28;20224;-70
2022/03/25 07:53:24;;;;;;;21.50;13.10;;;8.70;78.50;;;;;;5020596;28;20212;-71
2022/03/25 07:55:51;;;;;;;23.33;12.87;;;8.80;78.60;;;;;;5034089;28;20753;-70
2022/03/25 07:58:21;;;;;;;27.70;14.43;;;8.80;78.80;;;;;;5038846;28;20860;-71
2022/03/25 08:00:51;;;;;;;27.67;14.73;;;8.90;79.90;;;;;;5028839;28;21052;-70
2022/03/25 08:03:17;;;;;;;27.10;13.40;;;9.00;80.60;;;;;;5027403;28;20458;-70
2022/03/25 08:05:45;;;;;;;23.23;12.63;;;9.10;80.70;;;;;;5037959;28;20487;-68
2022/03/25 08:08:11;;;;;;;20.50;12.90;;;9.20;80.90;;;;;;5009142;28;21035;-67
2022/03/25 08:10:40;;;;;;;27.23;14.87;;;9.20;81.60;;;;;;5039510;28;20454;-70
2022/03/25 08:13:07;;;;;;;30.07;15.53;;;9.30;81.30;;;;;;5030484;28;20533;-69
2022/03/25 08:15:34;;;;;;;30.53;16.03;;;9.40;81.50;;;;;;5023135;28;20455;-70
2022/03/25 08:18:03;;;;;;;29.13;14.73;;;9.50;82.80;;;;;;5031514;28;20467;-71
2022/03/25 08:20:37;;;;;;;26.30;14.27;;;9.60;83.10;;;;;;5013225;28;20623;-68
2022/03/25 08:23:05;;;;;;;25.33;14.30;;;9.70;83.30;;;;;;5045171;28;20464;-70
2022/03/25 08:28:16;;;;;;;26.10;13.47;;;9.90;84.10;;;;;;5038062;28;20454;-68
2022/03/25 08:30:43;;;;;;;30.97;15.17;;;10.00;83.30;;;;;;5019903;28;20450;-69
2022/03/25 08:33:10;;;;;;;31.47;15.57;;;10.10;83.10;;;;;;5023412;28;20467;-67
2022/03/25 08:35:38;;;;;;;27.23;16.20;;;10.20;83.50;;;;;;5020488;28;20470;-70
2022/03/25 08:38:05;;;;;;;29.90;15.60;;;10.40;83.90;;;;;;5026552;28;20462;-68
2022/03/25 08:40:32;;;;;;;38.00;16.27;;;10.50;84.30;;;;;;5036184;28;20467;-68
2022/03/25 08:42:58;;;;;;;30.37;15.50;;;10.60;84.30;;;;;;5031282;28;20490;-70
2022/03/25 08:45:25;;;;;;;27.80;16.17;;;10.70;84.60;;;;;;5027395;28;20489;-71
2022/03/25 08:47:51;;;;;;;33.33;15.70;;;10.80;84.50;;;;;;5027697;28;20936;-70
2022/03/25 08:50:18;;;;;;;30.80;16.80;;;10.90;84.40;;;;;;5030647;28;20498;-68
2022/03/25 08:52:45;;;;;;;29.73;15.30;;;11.00;84.30;;;;;;5031287;28;20247;-68
2022/03/25 08:55:12;;;;;;;30.17;15.10;;;11.20;84.00;;;;;;5011325;28;21093;-68
2022/03/25 08:57:39;;;;;;;32.37;17.70;;;11.30;83.60;;;;;;5040989;28;20459;-70
2022/03/25 09:00:10;;;;;;;33.17;16.70;;;11.30;83.80;;;;;;5039065;28;20482;-71
2022/03/25 09:02:36;;;;;;;31.83;17.73;;;11.50;83.90;;;;;;5018369;28;20464;-70
2022/03/25 09:05:04;;;;;;;33.30;17.97;;;11.60;83.90;;;;;;5027146;28;20454;-67
2022/03/25 09:07:30;;;;;;;33.00;17.23;;;11.70;83.80;;;;;;5034320;28;20845;-69
2022/03/25 09:09:56;;;;;;;33.17;17.73;;;11.80;83.90;;;;;;5023083;28;20447;-70
2022/03/25 09:12:21;;;;;;;31.13;17.90;;;11.90;84.10;;;;;;5032278;28;20496;-72
2022/03/25 09:14:47;;;;;;;33.63;18.30;;;12.10;83.30;;;;;;5034261;28;20235;-70
2022/03/25 09:17:13;;;;;;;28.23;17.33;;;12.20;83.90;;;;;;5032388;28;20669;-70
2022/03/25 09:19:38;;;;;;;31.13;16.83;;;12.30;83.30;;;;;;5026472;28;20209;-68
2022/03/25 09:22:05;;;;;;;27.97;15.87;;;12.30;83.20;;;;;;5033626;28;20709;-71
2022/03/25 09:24:30;;;;;;;28.23;16.00;;;12.40;83.50;;;;;;5025758;28;20227;-70
2022/03/25 09:26:56;;;;;;;31.30;18.10;;;12.60;83.60;;;;;;5030023;28;20849;-70
2022/03/25 09:29:22;;;;;;;30.67;17.87;;;12.70;83.40;;;;;;5025735;28;20239;-70
2022/03/25 09:31:48;;;;;;;35.23;19.20;;;12.80;83.70;;;;;;5027162;28;20787;-70
2022/03/25 09:36:57;;;;;;;27.73;16.53;;;13.10;84.00;;;;;;5030266;28;20238;-70
2022/03/25 09:39:23;;;;;;;34.87;18.53;;;13.30;83.90;;;;;;5035274;28;20456;-68
2022/03/25 09:41:50;;;;;;;27.87;17.23;;;13.40;83.60;;;;;;5036568;28;20576;-70
2022/03/25 09:44:16;;;;;;;33.40;19.70;;;13.60;83.70;;;;;;5034586;28;20220;-71
2022/03/25 09:46:42;;;;;;;32.57;18.27;;;13.70;82.90;;;;;;5041904;28;20506;-70
2022/03/25 09:49:09;;;;;;;31.87;18.57;;;13.70;83.30;;;;;;5037770;28;20466;-70
2022/03/25 09:51:36;;;;;;;33.27;19.37;;;13.80;83.00;;;;;;5022839;28;20462;-69
2022/03/25 09:54:05;;;;;;;37.40;20.90;;;13.80;82.80;;;;;;5033883;28;20466;-70
2022/03/25 09:56:31;;;;;;;32.47;18.90;;;13.90;82.70;;;;;;5032913;28;20798;-68
2022/03/25 09:58:56;;;;;;;33.20;19.57;;;14.00;82.70;;;;;;5031389;28;20459;-70
2022/03/25 10:01:22;;;;;;;37.93;20.03;;;14.10;82.10;;;;;;5016720;28;20274;-70
2022/03/25 10:03:48;;;;;;;38.30;19.60;;;14.20;81.20;;;;;;5046068;28;20216;-68
2022/03/25 10:06:15;;;;;;;38.90;20.17;;;14.30;81.70;;;;;;5030308;28;20760;-70
2022/03/25 10:08:42;;;;;;;30.57;16.73;;;14.30;81.90;;;;;;5036653;28;20365;-67
2022/03/25 10:11:20;;;;;;;31.80;19.47;;;14.40;81.60;;;;;;5036581;28;20454;-67
2022/03/25 10:13:46;;;;;;;34.90;18.90;;;14.60;81.60;;;;;;5020735;28;20477;-67
2022/03/25 10:16:31;;;;;;;28.17;17.40;;;14.70;81.50;;;;;;5049317;28;20446;-70
2022/03/25 10:18:58;;;;;;;36.00;20.20;;;14.70;80.70;;;;;;5027044;28;20575;-69
2022/03/25 10:21:24;;;;;;;36.40;21.43;;;14.80;79.90;;;;;;5028396;28;20495;-65
2022/03/25 10:23:51;;;;;;;37.37;20.97;;;14.80;79.90;;;;;;5036061;28;20470;-69
2022/03/25 10:26:17;;;;;;;35.10;19.10;;;14.90;80.10;;;;;;5030437;28;21004;-69
2022/03/25 10:28:45;;;;;;;40.27;19.60;;;15.00;79.90;;;;;;5042317;28;20463;-69
2022/03/25 10:31:14;;;;;;;34.83;20.73;;;15.00;79.30;;;;;;5020487;28;20223;-67
2022/03/25 10:33:57;;;;;;;36.77;22.10;;;15.00;79.50;;;;;;5034338;28;20458;-66
2022/03/25 10:36:25;;;;;;;40.43;20.67;;;15.20;79.80;;;;;;5004792;28;20867;-68
2022/03/25 10:38:57;;;;;;;55.60;27.97;;;15.40;78.40;;;;;;5025252;28;20455;-69
2022/03/25 10:41:25;;;;;;;53.70;28.87;;;15.30;75.80;;;;;;5040494;28;20496;-66
2022/03/25 10:43:59;;;;;;;50.50;27.20;;;15.20;76.10;;;;;;5026418;28;20506;-68
2022/03/25 10:46:34;;;;;;;42.20;24.20;;;15.50;76.10;;;;;;5029062;28;20877;-68
2022/03/25 10:49:03;;;;;;;41.17;24.30;;;15.70;75.50;;;;;;5039602;28;20488;-67
2022/03/25 10:51:29;;;;;;;41.03;23.27;;;15.90;75.50;;;;;;5024543;28;20545;-66
2022/03/25 10:54:01;;;;;;;40.00;22.97;;;15.90;75.00;;;;;;5029014;28;20566;-69
2022/03/25 10:56:27;;;;;;;46.17;24.63;;;16.00;74.40;;;;;;5037812;28;20508;-67
2022/03/25 10:58:55;;;;;;;41.83;24.20;;;16.20;74.00;;;;;;5026568;28;21022;-68
2022/03/25 11:01:22;;;;;;;39.13;21.93;;;16.20;73.50;;;;;;5031747;28;20843;-68
2022/03/25 11:03:51;;;;;;;37.73;22.20;;;16.30;73.20;;;;;;5027395;28;20460;-69
2022/03/25 11:06:18;;;;;;;40.13;22.20;;;16.30;73.00;;;;;;5033042;28;20456;-70
2022/03/25 11:08:45;;;;;;;38.87;23.07;;;16.30;73.10;;;;;;5035977;28;20835;-68
2022/03/25 11:11:14;;;;;;;37.00;22.50;;;16.30;72.40;;;;;;5025423;28;20583;-68
2022/03/25 11:13:42;;;;;;;45.00;24.37;;;16.30;72.80;;;;;;5009234;28;20474;-66
2022/03/25 11:16:08;;;;;;;35.37;22.43;;;16.30;71.00;;;;;;5012651;28;20455;-69
2022/03/25 11:18:39;;;;;;;40.83;23.23;;;16.40;70.60;;;;;;5027346;28;20856;-69
2022/03/25 11:21:05;;;;;;;37.97;21.40;;;16.40;69.30;;;;;;5027056;28;20343;-69
2022/03/25 11:23:43;;;;;;;35.40;20.27;;;16.50;68.80;;;;;;5029628;28;20458;-67
2022/03/25 11:26:12;;;;;;;33.37;21.03;;;16.50;68.00;;;;;;5032023;28;20489;-67
2022/03/25 11:28:37;;;;;;;33.80;20.07;;;16.50;66.50;;;;;;5032086;28;20461;-68
2022/03/25 11:31:07;;;;;;;45.10;22.00;;;16.50;66.20;;;;;;5032263;28;20446;-69
2022/03/25 11:34:12;;;;;;;34.83;21.97;;;16.50;67.90;;;;;;5030679;28;20716;-68
2022/03/25 11:36:45;;;;;;;39.77;21.43;;;16.60;67.00;;;;;;5040205;28;20479;-67
2022/03/25 11:39:24;;;;;;;33.33;20.40;;;16.50;66.40;;;;;;5003413;28;20979;-68
2022/03/25 11:41:53;;;;;;;38.43;22.17;;;16.50;66.30;;;;;;5022102;28;20470;-66
2022/03/25 11:44:23;;;;;;;37.07;23.87;;;16.50;67.00;;;;;;5009886;28;20830;-69
2022/03/25 11:47:01;;;;;;;41.80;22.80;;;16.60;65.90;;;;;;5031689;28;20483;-68
2022/03/25 11:49:31;;;;;;;34.50;19.77;;;16.60;65.40;;;;;;5026814;28;20462;-69
2022/03/25 11:51:57;;;;;;;37.70;21.00;;;16.70;65.50;;;;;;5032405;28;21030;-68
2022/03/25 11:54:40;;;;;;;34.10;21.50;;;16.80;63.80;;;;;;5021851;28;20471;-67
2022/03/25 11:57:22;;;;;;;42.80;22.43;;;16.80;62.80;;;;;;5027464;28;20460;-68
2022/03/25 11:59:50;;;;;;;31.70;20.60;;;16.80;65.20;;;;;;5028123;28;20452;-69
2022/03/25 12:02:25;;;;;;;32.43;20.57;;;16.80;63.10;;;;;;4995166;28;20472;-69
2022/03/25 12:04:51;;;;;;;33.10;20.30;;;16.90;62.20;;;;;;5025135;28;20471;-67
2022/03/25 12:07:17;;;;;;;38.37;21.50;;;16.80;62.00;;;;;;5024788;28;20463;-68
2022/03/25 12:09:46;;;;;;;35.80;21.17;;;16.80;63.30;;;;;;5022107;28;20216;-66
2022/03/25 12:12:12;;;;;;;32.37;19.60;;;16.80;62.60;;;;;;5029401;28;20680;-68
2022/03/25 12:15:07;;;;;;;38.57;22.40;;;16.80;63.60;;;;;;5030400;28;20452;-67
2022/03/25 12:17:33;;;;;;;35.80;19.40;;;16.80;63.30;;;;;;5028737;28;20465;-66
2022/03/25 12:20:01;;;;;;;37.23;21.53;;;16.70;61.80;;;;;;5030877;28;20946;-68
2022/03/25 12:22:36;;;;;;;32.43;19.87;;;16.80;61.80;;;;;;5026612;28;20221;-69
2022/03/25 12:25:14;;;;;;;41.10;23.60;;;17.00;62.50;;;;;;5026148;28;20478;-67
2022/03/25 12:27:41;;;;;;;38.00;20.77;;;17.00;62.30;;;;;;5030669;28;20501;-67
2022/03/25 12:30:08;;;;;;;36.83;20.60;;;17.00;61.40;;;;;;5025178;28;20454;-68
2022/03/25 12:32:36;;;;;;;30.80;19.67;;;17.10;61.80;;;;;;5030171;28;20454;-68
2022/03/25 12:35:07;;;;;;;33.53;21.57;;;17.20;62.40;;;;;;5025583;28;20446;-70
2022/03/25 12:37:38;;;;;;;37.17;23.13;;;17.30;61.10;;;;;;5026214;28;20483;-67